WXM80 ListenWXM80 Stop

You find our weather info also at:

UK Metoffice

WeatherCloud

Weather Underground

Northeastern Weather Network

AWEKAS

Citizen Weather Observer Program (CWOP)

HAMweather, WeatherForYou, PWS Weather


Weather Underground History page Text

Daily Summary for July 11, 2017 Units:  Both    English   Metric
« Previous Day
Next Day »
Daily Weekly Monthly Yearly Custom
  High: Low: Average:
Temperature: 89.4 °F /  31.9 °C 73.7 °F /  23.2 °C 79.7 °F /  26.5 °C
Dew Point: 75.0 °F /  23.9 °C 70.8 °F /  21.6 °C 72.7 °F /  22.6 °C
Humidity: 94 % 57 % 80 %
Wind Speed: 11.4 mph /  18.3 km/h - 1.5 mph /  2.4 km/h
Wind Gust: 23.0 mph /  37 km/h - -
Wind:- - WSW
Pressure: 29.93 in /  1013.4 hPa 29.86 in /  1011.1 hPa -
Precipitation: 0.37 in /  9.4 mm    
Historical Graphs
 
 
Tabular Data for July 11, 2017
Time Temperature Dew Point Pressure Wind Wind Speed Wind Gust Humidity Rainfall Rate (Hourly)
00:04 75.6 °F /  24.2 °C 71.5 °F /  21.9 °C 29.93 in /  1013.4 hPa South 1.7 mph /  2.7 km/h 3.5 mph /  5.6 km/h 87 % 0.00 in /  0 mm
00:09 75.6 °F /  24.2 °C 71.5 °F /  21.9 °C 29.93 in /  1013.4 hPa SSW 0.8 mph /  1.3 km/h 3.5 mph /  5.6 km/h 87 % 0.00 in /  0 mm
00:14 75.6 °F /  24.2 °C 71.5 °F /  21.9 °C 29.93 in /  1013.4 hPa South 0.6 mph /  1 km/h 2.3 mph /  3.7 km/h 87 % 0.00 in /  0 mm
00:19 75.6 °F /  24.2 °C 71.5 °F /  21.9 °C 29.93 in /  1013.4 hPa SSE 2.3 mph /  3.7 km/h 3.5 mph /  5.6 km/h 87 % 0.00 in /  0 mm
00:24 75.6 °F /  24.2 °C 71.5 °F /  21.9 °C 29.93 in /  1013.4 hPa SSW 1.9 mph /  3.1 km/h 4.0 mph /  6.4 km/h 87 % 0.00 in /  0 mm
00:29 75.6 °F /  24.2 °C 71.5 °F /  21.9 °C 29.93 in /  1013.4 hPa SSW 0.3 mph /  0.5 km/h 3.5 mph /  5.6 km/h 87 % 0.00 in /  0 mm
00:34 75.6 °F /  24.2 °C 71.5 °F /  21.9 °C 29.92 in /  1013.1 hPa South 0.3 mph /  0.5 km/h 1.2 mph /  1.9 km/h 87 % 0.00 in /  0 mm
00:39 75.6 °F /  24.2 °C 71.5 °F /  21.9 °C 29.93 in /  1013.4 hPa South 0.7 mph /  1.1 km/h 3.5 mph /  5.6 km/h 87 % 0.00 in /  0 mm
00:44 75.6 °F /  24.2 °C 71.5 °F /  21.9 °C 29.93 in /  1013.4 hPa SSE 1.3 mph /  2.1 km/h 3.5 mph /  5.6 km/h 87 % 0.00 in /  0 mm
00:49 75.6 °F /  24.2 °C 71.8 °F /  22.1 °C 29.92 in /  1013.1 hPa South 2.0 mph /  3.2 km/h 3.5 mph /  5.6 km/h 88 % 0.00 in /  0 mm
00:54 75.5 °F /  24.2 °C 71.7 °F /  22.1 °C 29.92 in /  1013.1 hPa SSW 0.7 mph /  1.1 km/h 4.6 mph /  7.4 km/h 88 % 0.00 in /  0 mm
00:59 75.5 °F /  24.2 °C 71.7 °F /  22.1 °C 29.92 in /  1013.1 hPa SSE 2.0 mph /  3.2 km/h 4.0 mph /  6.4 km/h 88 % 0.00 in /  0 mm
01:04 75.5 °F /  24.2 °C 71.7 °F /  22.1 °C 29.92 in /  1013.1 hPa SSW 0.2 mph /  0.3 km/h 3.5 mph /  5.6 km/h 88 % 0.00 in /  0 mm
01:09 75.5 °F /  24.2 °C 71.7 °F /  22.1 °C 29.92 in /  1013.1 hPa SSW 1.0 mph /  1.6 km/h 3.5 mph /  5.6 km/h 88 % 0.00 in /  0 mm
01:14 75.5 °F /  24.2 °C 71.7 °F /  22.1 °C 29.92 in /  1013.1 hPa South 1.8 mph /  2.9 km/h 3.5 mph /  5.6 km/h 88 % 0.00 in /  0 mm
01:19 75.4 °F /  24.1 °C 71.6 °F /  22 °C 29.92 in /  1013.1 hPa SSW 2.0 mph /  3.2 km/h 3.5 mph /  5.6 km/h 88 % 0.00 in /  0 mm
01:24 75.4 °F /  24.1 °C 71.6 °F /  22 °C 29.91 in /  1012.8 hPa Calm   2.3 mph /  3.7 km/h 88 % 0.00 in /  0 mm
01:30 75.3 °F /  24.1 °C 71.5 °F /  21.9 °C 29.91 in /  1012.8 hPa SSW 0.6 mph /  1 km/h 3.5 mph /  5.6 km/h 88 % 0.00 in /  0 mm
01:33 75.3 °F /  24.1 °C 71.5 °F /  21.9 °C 29.91 in /  1012.8 hPa SE 0.7 mph /  1.1 km/h 1.2 mph /  1.9 km/h 88 % 0.00 in /  0 mm
01:38 75.3 °F /  24.1 °C 71.5 °F /  21.9 °C 29.91 in /  1012.8 hPa SSE 1.0 mph /  1.6 km/h 3.5 mph /  5.6 km/h 88 % 0.00 in /  0 mm
01:43 75.3 °F /  24.1 °C 71.5 °F /  21.9 °C 29.91 in /  1012.8 hPa SSE 2.5 mph /  4 km/h 4.0 mph /  6.4 km/h 88 % 0.00 in /  0 mm
01:48 75.2 °F /  24 °C 71.4 °F /  21.9 °C 29.91 in /  1012.8 hPa South 1.2 mph /  1.9 km/h 3.5 mph /  5.6 km/h 88 % 0.00 in /  0 mm
01:53 75.2 °F /  24 °C 71.4 °F /  21.9 °C 29.91 in /  1012.8 hPa South 1.1 mph /  1.8 km/h 3.0 mph /  4.8 km/h 88 % 0.00 in /  0 mm
01:58 75.2 °F /  24 °C 71.4 °F /  21.9 °C 29.91 in /  1012.8 hPa SSW 0.9 mph /  1.4 km/h 3.5 mph /  5.6 km/h 88 % 0.00 in /  0 mm
02:04 75.2 °F /  24 °C 71.7 °F /  22.1 °C 29.91 in /  1012.8 hPa SSW 2.1 mph /  3.4 km/h 3.5 mph /  5.6 km/h 89 % 0.00 in /  0 mm
02:09 75.2 °F /  24 °C 71.7 °F /  22.1 °C 29.91 in /  1012.8 hPa SW 0.7 mph /  1.1 km/h 2.0 mph /  3.2 km/h 89 % 0.00 in /  0 mm
02:14 75.2 °F /  24 °C 71.7 °F /  22.1 °C 29.90 in /  1012.4 hPa SE 2.4 mph /  3.9 km/h 5.8 mph /  9.3 km/h 89 % 0.00 in /  0 mm
02:19 75.2 °F /  24 °C 71.7 °F /  22.1 °C 29.90 in /  1012.4 hPa WSW 1.0 mph /  1.6 km/h 3.5 mph /  5.6 km/h 89 % 0.00 in /  0 mm
02:24 75.2 °F /  24 °C 71.7 °F /  22.1 °C 29.90 in /  1012.4 hPa SSW 0.4 mph /  0.6 km/h 3.5 mph /  5.6 km/h 89 % 0.00 in /  0 mm
02:29 75.2 °F /  24 °C 71.7 °F /  22.1 °C 29.90 in /  1012.4 hPa WSW 2.0 mph /  3.2 km/h 5.0 mph /  8 km/h 89 % 0.00 in /  0 mm
02:34 75.2 °F /  24 °C 71.7 °F /  22.1 °C 29.90 in /  1012.4 hPa South 0.8 mph /  1.3 km/h 4.0 mph /  6.4 km/h 89 % 0.00 in /  0 mm
02:39 75.2 °F /  24 °C 71.7 °F /  22.1 °C 29.90 in /  1012.4 hPa South 1.6 mph /  2.6 km/h 4.6 mph /  7.4 km/h 89 % 0.00 in /  0 mm
02:44 75.2 °F /  24 °C 71.7 °F /  22.1 °C 29.90 in /  1012.4 hPa South 0.3 mph /  0.5 km/h 2.3 mph /  3.7 km/h 89 % 0.00 in /  0 mm
02:49 75.1 °F /  23.9 °C 71.6 °F /  22 °C 29.90 in /  1012.4 hPa SW 1.8 mph /  2.9 km/h 3.5 mph /  5.6 km/h 89 % 0.00 in /  0 mm
02:54 75.1 °F /  23.9 °C 71.6 °F /  22 °C 29.89 in /  1012.1 hPa SSE 1.3 mph /  2.1 km/h 5.8 mph /  9.3 km/h 89 % 0.00 in /  0 mm
02:59 75.1 °F /  23.9 °C 71.6 °F /  22 °C 29.89 in /  1012.1 hPa SSE 0.3 mph /  0.5 km/h 1.2 mph /  1.9 km/h 89 % 0.00 in /  0 mm
03:04 75.1 °F /  23.9 °C 71.6 °F /  22 °C 29.89 in /  1012.1 hPa SE 2.8 mph /  4.5 km/h 6.9 mph /  11.1 km/h 89 % 0.00 in /  0 mm
03:09 75.1 °F /  23.9 °C 71.6 °F /  22 °C 29.89 in /  1012.1 hPa SSE 1.5 mph /  2.4 km/h 3.5 mph /  5.6 km/h 89 % 0.00 in /  0 mm
03:14 75.0 °F /  23.9 °C 71.2 °F /  21.8 °C 29.89 in /  1012.1 hPa SSW 0.9 mph /  1.4 km/h 2.3 mph /  3.7 km/h 88 % 0.00 in /  0 mm
03:19 74.9 °F /  23.8 °C 71.1 °F /  21.7 °C 29.89 in /  1012.1 hPa SE 1.0 mph /  1.6 km/h 6.0 mph /  9.7 km/h 88 % 0.00 in /  0 mm
03:24 74.9 °F /  23.8 °C 71.1 °F /  21.7 °C 29.88 in /  1011.7 hPa SSW 0.7 mph /  1.1 km/h 1.2 mph /  1.9 km/h 88 % 0.00 in /  0 mm
03:29 74.9 °F /  23.8 °C 71.1 °F /  21.7 °C 29.88 in /  1011.7 hPa SSW 1.5 mph /  2.4 km/h 2.3 mph /  3.7 km/h 88 % 0.00 in /  0 mm
03:34 74.9 °F /  23.8 °C 71.1 °F /  21.7 °C 29.88 in /  1011.7 hPa SSE 2.0 mph /  3.2 km/h 3.5 mph /  5.6 km/h 88 % 0.00 in /  0 mm
03:40 74.9 °F /  23.8 °C 71.1 °F /  21.7 °C 29.88 in /  1011.7 hPa SSW 2.6 mph /  4.2 km/h 3.5 mph /  5.6 km/h 88 % 0.00 in /  0 mm
03:45 74.9 °F /  23.8 °C 71.4 °F /  21.9 °C 29.88 in /  1011.7 hPa SSW 1.2 mph /  1.9 km/h 3.5 mph /  5.6 km/h 89 % 0.00 in /  0 mm
03:50 74.9 °F /  23.8 °C 71.4 °F /  21.9 °C 29.88 in /  1011.7 hPa SSE 0.8 mph /  1.3 km/h 3.5 mph /  5.6 km/h 89 % 0.00 in /  0 mm
03:55 74.9 °F /  23.8 °C 71.4 °F /  21.9 °C 29.88 in /  1011.7 hPa SSW 1.5 mph /  2.4 km/h 3.5 mph /  5.6 km/h 89 % 0.00 in /  0 mm
04:00 74.9 °F /  23.8 °C 71.4 °F /  21.9 °C 29.88 in /  1011.7 hPa South 0.6 mph /  1 km/h 3.5 mph /  5.6 km/h 89 % 0.00 in /  0 mm
04:05 74.9 °F /  23.8 °C 71.8 °F /  22.1 °C 29.88 in /  1011.7 hPa SE 0.5 mph /  0.8 km/h 2.0 mph /  3.2 km/h 90 % 0.00 in /  0 mm
04:06 74.9 °F /  23.8 °C 71.8 °F /  22.1 °C 29.88 in /  1011.7 hPa SSE 0.6 mph /  1 km/h 2.3 mph /  3.7 km/h 90 % 0.00 in /  0 mm
04:11 74.9 °F /  23.8 °C 71.8 °F /  22.1 °C 29.88 in /  1011.7 hPa South 1.2 mph /  1.9 km/h 3.5 mph /  5.6 km/h 90 % 0.00 in /  0 mm
04:16 74.9 °F /  23.8 °C 71.8 °F /  22.1 °C 29.88 in /  1011.7 hPa WSW 0.8 mph /  1.3 km/h 3.5 mph /  5.6 km/h 90 % 0.00 in /  0 mm
04:21 74.9 °F /  23.8 °C 71.8 °F /  22.1 °C 29.87 in /  1011.4 hPa West 0.3 mph /  0.5 km/h 1.2 mph /  1.9 km/h 90 % 0.00 in /  0 mm
04:26 75.0 °F /  23.9 °C 71.9 °F /  22.2 °C 29.87 in /  1011.4 hPa SSW 0.9 mph /  1.4 km/h 5.8 mph /  9.3 km/h 90 % 0.00 in /  0 mm
04:32 75.0 °F /  23.9 °C 71.9 °F /  22.2 °C 29.87 in /  1011.4 hPa SSE 2.2 mph /  3.5 km/h 4.6 mph /  7.4 km/h 90 % 0.00 in /  0 mm
04:37 75.1 °F /  23.9 °C 72.0 °F /  22.2 °C 29.87 in /  1011.4 hPa SE 1.9 mph /  3.1 km/h 4.6 mph /  7.4 km/h 90 % 0.00 in /  0 mm
04:42 75.1 °F /  23.9 °C 72.0 °F /  22.2 °C 29.87 in /  1011.4 hPa SE 1.8 mph /  2.9 km/h 3.5 mph /  5.6 km/h 90 % 0.00 in /  0 mm
04:47 75.1 °F /  23.9 °C 72.0 °F /  22.2 °C 29.86 in /  1011.1 hPa SSW 1.1 mph /  1.8 km/h 3.5 mph /  5.6 km/h 90 % 0.00 in /  0 mm
04:52 75.2 °F /  24 °C 72.1 °F /  22.3 °C 29.86 in /  1011.1 hPa West 2.0 mph /  3.2 km/h 5.8 mph /  9.3 km/h 90 % 0.00 in /  0 mm
04:57 75.2 °F /  24 °C 72.1 °F /  22.3 °C 29.87 in /  1011.4 hPa SSW 0.8 mph /  1.3 km/h 3.5 mph /  5.6 km/h 90 % 0.00 in /  0 mm
05:02 75.2 °F /  24 °C 72.1 °F /  22.3 °C 29.87 in /  1011.4 hPa WSW 1.6 mph /  2.6 km/h 2.3 mph /  3.7 km/h 90 % 0.00 in /  0 mm
05:07 75.1 °F /  23.9 °C 72.0 °F /  22.2 °C 29.88 in /  1011.7 hPa WSW 0.6 mph /  1 km/h 3.5 mph /  5.6 km/h 90 % 0.00 in /  0 mm
05:12 75.1 °F /  23.9 °C 72.0 °F /  22.2 °C 29.88 in /  1011.7 hPa SW 0.6 mph /  1 km/h 2.3 mph /  3.7 km/h 90 % 0.00 in /  0 mm
05:17 75.1 °F /  23.9 °C 72.0 °F /  22.2 °C 29.88 in /  1011.7 hPa SW 2.9 mph /  4.7 km/h 5.8 mph /  9.3 km/h 90 % 0.00 in /  0 mm
05:22 75.1 °F /  23.9 °C 72.0 °F /  22.2 °C 29.88 in /  1011.7 hPa WSW 0.4 mph /  0.6 km/h 2.0 mph /  3.2 km/h 90 % 0.00 in /  0 mm
05:27 75.0 °F /  23.9 °C 71.9 °F /  22.2 °C 29.88 in /  1011.7 hPa WNW 1.1 mph /  1.8 km/h 3.5 mph /  5.6 km/h 90 % 0.00 in /  0 mm
05:32 75.0 °F /  23.9 °C 71.9 °F /  22.2 °C 29.88 in /  1011.7 hPa WSW 1.0 mph /  1.6 km/h 3.5 mph /  5.6 km/h 90 % 0.00 in /  0 mm
05:37 75.0 °F /  23.9 °C 71.9 °F /  22.2 °C 29.88 in /  1011.7 hPa WSW 0.4 mph /  0.6 km/h 3.5 mph /  5.6 km/h 90 % 0.00 in /  0 mm
05:42 74.9 °F /  23.8 °C 71.8 °F /  22.1 °C 29.88 in /  1011.7 hPa Calm     90 % 0.00 in /  0 mm
05:47 74.9 °F /  23.8 °C 71.8 °F /  22.1 °C 29.87 in /  1011.4 hPa Calm     90 % 0.00 in /  0 mm
05:52 74.8 °F /  23.8 °C 71.7 °F /  22.1 °C 29.87 in /  1011.4 hPa Calm   1.2 mph /  1.9 km/h 90 % 0.00 in /  0 mm
05:57 74.8 °F /  23.8 °C 71.7 °F /  22.1 °C 29.88 in /  1011.7 hPa Calm     90 % 0.00 in /  0 mm
06:02 74.8 °F /  23.8 °C 71.7 °F /  22.1 °C 29.88 in /  1011.7 hPa Calm     90 % 0.00 in /  0 mm
06:07 74.7 °F /  23.7 °C 71.6 °F /  22 °C 29.87 in /  1011.4 hPa Calm     90 % 0.00 in /  0 mm
06:12 74.7 °F /  23.7 °C 71.6 °F /  22 °C 29.88 in /  1011.7 hPa Calm   1.2 mph /  1.9 km/h 90 % 0.00 in /  0 mm
06:18 74.6 °F /  23.7 °C 71.5 °F /  21.9 °C 29.87 in /  1011.4 hPa SW 0.1 mph /  0.2 km/h 4.6 mph /  7.4 km/h 90 % 0.00 in /  0 mm
06:23 74.6 °F /  23.7 °C 71.5 °F /  21.9 °C 29.87 in /  1011.4 hPa SW 0.2 mph /  0.3 km/h 2.3 mph /  3.7 km/h 90 % 0.00 in /  0 mm
06:28 74.6 °F /  23.7 °C 71.5 °F /  21.9 °C 29.87 in /  1011.4 hPa SW 0.7 mph /  1.1 km/h 1.0 mph /  1.6 km/h 90 % 0.00 in /  0 mm
06:33 74.7 °F /  23.7 °C 71.6 °F /  22 °C 29.87 in /  1011.4 hPa South 1.5 mph /  2.4 km/h 3.5 mph /  5.6 km/h 90 % 0.00 in /  0 mm
06:38 74.7 °F /  23.7 °C 71.6 °F /  22 °C 29.87 in /  1011.4 hPa WSW 0.8 mph /  1.3 km/h 3.0 mph /  4.8 km/h 90 % 0.00 in /  0 mm
06:43 74.8 °F /  23.8 °C 71.7 °F /  22.1 °C 29.87 in /  1011.4 hPa Calm   1.0 mph /  1.6 km/h 90 % 0.00 in /  0 mm
06:48 74.9 °F /  23.8 °C 71.4 °F /  21.9 °C 29.87 in /  1011.4 hPa WSW 2.0 mph /  3.2 km/h 3.5 mph /  5.6 km/h 89 % 0.00 in /  0 mm
06:53 74.9 °F /  23.8 °C 71.4 °F /  21.9 °C 29.87 in /  1011.4 hPa West 1.8 mph /  2.9 km/h 6.0 mph /  9.7 km/h 89 % 0.00 in /  0 mm
06:58 75.0 °F /  23.9 °C 71.5 °F /  21.9 °C 29.87 in /  1011.4 hPa WSW 0.4 mph /  0.6 km/h 4.0 mph /  6.4 km/h 89 % 0.00 in /  0 mm
07:03 75.1 °F /  23.9 °C 71.6 °F /  22 °C 29.87 in /  1011.4 hPa SSE 1.5 mph /  2.4 km/h 3.5 mph /  5.6 km/h 89 % 0.00 in /  0 mm
07:08 75.2 °F /  24 °C 71.7 °F /  22.1 °C 29.88 in /  1011.7 hPa WSW 2.2 mph /  3.5 km/h 5.8 mph /  9.3 km/h 89 % 0.00 in /  0 mm
07:13 75.3 °F /  24.1 °C 71.8 °F /  22.1 °C 29.88 in /  1011.7 hPa SW 3.1 mph /  5 km/h 7.0 mph /  11.3 km/h 89 % 0.00 in /  0 mm
07:18 75.5 °F /  24.2 °C 72.0 °F /  22.2 °C 29.88 in /  1011.7 hPa SW 4.3 mph /  6.9 km/h 4.6 mph /  7.4 km/h 89 % 0.00 in /  0 mm
07:23 75.8 °F /  24.3 °C 72.3 °F /  22.4 °C 29.88 in /  1011.7 hPa SSW 1.0 mph /  1.6 km/h 6.0 mph /  9.7 km/h 89 % 0.00 in /  0 mm
07:28 76.0 °F /  24.4 °C 72.2 °F /  22.3 °C 29.89 in /  1012.1 hPa SSW 1.0 mph /  1.6 km/h 5.0 mph /  8 km/h 88 % 0.00 in /  0 mm
07:33 76.3 °F /  24.6 °C 72.5 °F /  22.5 °C 29.88 in /  1011.7 hPa SW 2.4 mph /  3.9 km/h 7.0 mph /  11.3 km/h 88 % 0.00 in /  0 mm
07:38 76.6 °F /  24.8 °C 72.8 °F /  22.7 °C 29.89 in /  1012.1 hPa West 2.0 mph /  3.2 km/h 4.6 mph /  7.4 km/h 88 % 0.00 in /  0 mm
07:43 76.8 °F /  24.9 °C 72.6 °F /  22.6 °C 29.89 in /  1012.1 hPa West 1.8 mph /  2.9 km/h 3.5 mph /  5.6 km/h 87 % 0.00 in /  0 mm
07:48 77.0 °F /  25 °C 72.5 °F /  22.5 °C 29.89 in /  1012.1 hPa WSW 3.0 mph /  4.8 km/h 4.6 mph /  7.4 km/h 86 % 0.00 in /  0 mm
07:53 77.1 °F /  25.1 °C 72.6 °F /  22.6 °C 29.89 in /  1012.1 hPa WSW 4.7 mph /  7.6 km/h 8.0 mph /  12.9 km/h 86 % 0.00 in /  0 mm
07:58 77.2 °F /  25.1 °C 72.3 °F /  22.4 °C 29.89 in /  1012.1 hPa SW 4.4 mph /  7.1 km/h 5.8 mph /  9.3 km/h 85 % 0.00 in /  0 mm
08:03 77.3 °F /  25.2 °C 72.4 °F /  22.4 °C 29.89 in /  1012.1 hPa WSW 2.3 mph /  3.7 km/h 4.0 mph /  6.4 km/h 85 % 0.00 in /  0 mm
08:08 77.4 °F /  25.2 °C 72.5 °F /  22.5 °C 29.89 in /  1012.1 hPa SW 3.2 mph /  5.1 km/h 4.6 mph /  7.4 km/h 85 % 0.00 in /  0 mm
08:13 77.5 °F /  25.3 °C 73.0 °F /  22.8 °C 29.89 in /  1012.1 hPa WNW 1.6 mph /  2.6 km/h 5.8 mph /  9.3 km/h 86 % 0.00 in /  0 mm
08:18 77.7 °F /  25.4 °C 72.8 °F /  22.7 °C 29.90 in /  1012.4 hPa West 2.1 mph /  3.4 km/h 8.1 mph /  13 km/h 85 % 0.00 in /  0 mm
08:23 77.8 °F /  25.4 °C 72.9 °F /  22.7 °C 29.89 in /  1012.1 hPa WNW 3.3 mph /  5.3 km/h 6.9 mph /  11.1 km/h 85 % 0.00 in /  0 mm
08:28 77.9 °F /  25.5 °C 73.0 °F /  22.8 °C 29.89 in /  1012.1 hPa North 0.2 mph /  0.3 km/h 1.2 mph /  1.9 km/h 85 % 0.00 in /  0 mm
08:33 77.9 °F /  25.5 °C 73.0 °F /  22.8 °C 29.89 in /  1012.1 hPa North 0.6 mph /  1 km/h 1.2 mph /  1.9 km/h 85 % 0.00 in /  0 mm
08:38 78.0 °F /  25.6 °C 73.1 °F /  22.8 °C 29.89 in /  1012.1 hPa WNW 2.8 mph /  4.5 km/h 3.5 mph /  5.6 km/h 85 % 0.00 in /  0 mm
08:44 78.0 °F /  25.6 °C 73.1 °F /  22.8 °C 29.89 in /  1012.1 hPa WNW 0.9 mph /  1.4 km/h 1.2 mph /  1.9 km/h 85 % 0.00 in /  0 mm
08:49 78.1 °F /  25.6 °C 73.2 °F /  22.9 °C 29.89 in /  1012.1 hPa West 2.2 mph /  3.5 km/h 3.5 mph /  5.6 km/h 85 % 0.00 in /  0 mm
08:54 78.1 °F /  25.6 °C 73.2 °F /  22.9 °C 29.89 in /  1012.1 hPa West 0.8 mph /  1.3 km/h 3.5 mph /  5.6 km/h 85 % 0.00 in /  0 mm
08:59 78.2 °F /  25.7 °C 73.0 °F /  22.8 °C 29.89 in /  1012.1 hPa WNW 1.4 mph /  2.3 km/h 4.0 mph /  6.4 km/h 84 % 0.00 in /  0 mm
09:04 78.3 °F /  25.7 °C 73.4 °F /  23 °C 29.89 in /  1012.1 hPa WNW 0.7 mph /  1.1 km/h 4.6 mph /  7.4 km/h 85 % 0.00 in /  0 mm
09:09 78.3 °F /  25.7 °C 73.4 °F /  23 °C 29.89 in /  1012.1 hPa WNW 2.4 mph /  3.9 km/h 6.9 mph /  11.1 km/h 85 % 0.00 in /  0 mm
09:14 78.4 °F /  25.8 °C 72.8 °F /  22.7 °C 29.89 in /  1012.1 hPa West 3.9 mph /  6.3 km/h 8.1 mph /  13 km/h 83 % 0.00 in /  0 mm
09:19 78.6 °F /  25.9 °C 73.0 °F /  22.8 °C 29.89 in /  1012.1 hPa WSW 2.2 mph /  3.5 km/h 4.0 mph /  6.4 km/h 83 % 0.00 in /  0 mm
09:24 78.7 °F /  25.9 °C 72.7 °F /  22.6 °C 29.89 in /  1012.1 hPa WSW 2.3 mph /  3.7 km/h 6.9 mph /  11.1 km/h 82 % 0.00 in /  0 mm
09:29 78.9 °F /  26.1 °C 72.6 °F /  22.6 °C 29.89 in /  1012.1 hPa NW 4.1 mph /  6.6 km/h 8.0 mph /  12.9 km/h 81 % 0.00 in /  0 mm
09:34 79.1 °F /  26.2 °C 72.8 °F /  22.7 °C 29.89 in /  1012.1 hPa SSW 5.0 mph /  8 km/h 8.0 mph /  12.9 km/h 81 % 0.00 in /  0 mm
09:39 79.5 °F /  26.4 °C 73.2 °F /  22.9 °C 29.89 in /  1012.1 hPa WSW 4.2 mph /  6.8 km/h 4.6 mph /  7.4 km/h 81 % 0.00 in /  0 mm
09:44 79.8 °F /  26.6 °C 73.1 °F /  22.8 °C 29.89 in /  1012.1 hPa WSW 5.3 mph /  8.5 km/h 8.1 mph /  13 km/h 80 % 0.00 in /  0 mm
09:49 80.2 °F /  26.8 °C 72.7 °F /  22.6 °C 29.90 in /  1012.4 hPa WSW 2.1 mph /  3.4 km/h 8.1 mph /  13 km/h 78 % 0.00 in /  0 mm
09:54 80.8 °F /  27.1 °C 73.3 °F /  22.9 °C 29.89 in /  1012.1 hPa SW 3.7 mph /  6 km/h 6.9 mph /  11.1 km/h 78 % 0.00 in /  0 mm
10:00 81.4 °F /  27.4 °C 73.5 °F /  23.1 °C 29.90 in /  1012.4 hPa WSW 2.1 mph /  3.4 km/h 9.2 mph /  14.8 km/h 77 % 0.00 in /  0 mm
10:05 81.8 °F /  27.7 °C 73.1 °F /  22.8 °C 29.90 in /  1012.4 hPa West 1.5 mph /  2.4 km/h 3.5 mph /  5.6 km/h 75 % 0.00 in /  0 mm
10:10 82.2 °F /  27.9 °C 73.1 °F /  22.8 °C 29.90 in /  1012.4 hPa SW 3.5 mph /  5.6 km/h 6.0 mph /  9.7 km/h 74 % 0.00 in /  0 mm
10:15 82.6 °F /  28.1 °C 72.7 °F /  22.6 °C 29.90 in /  1012.4 hPa West 3.2 mph /  5.1 km/h 8.1 mph /  13 km/h 72 % 0.00 in /  0 mm
10:20 82.9 °F /  28.3 °C 72.5 °F /  22.5 °C 29.89 in /  1012.1 hPa SW 1.1 mph /  1.8 km/h 6.9 mph /  11.1 km/h 71 % 0.00 in /  0 mm
10:25 82.9 °F /  28.3 °C 71.7 °F /  22.1 °C 29.89 in /  1012.1 hPa WNW 3.1 mph /  5 km/h 6.9 mph /  11.1 km/h 69 % 0.00 in /  0 mm
10:30 82.8 °F /  28.2 °C 72.0 °F /  22.2 °C 29.89 in /  1012.1 hPa SW 0.8 mph /  1.3 km/h 3.5 mph /  5.6 km/h 70 % 0.00 in /  0 mm
10:35 82.7 °F /  28.2 °C 72.3 °F /  22.4 °C 29.89 in /  1012.1 hPa WNW 1.7 mph /  2.7 km/h 3.5 mph /  5.6 km/h 71 % 0.00 in /  0 mm
10:40 82.6 °F /  28.1 °C 71.8 °F /  22.1 °C 29.89 in /  1012.1 hPa West 2.7 mph /  4.3 km/h 6.9 mph /  11.1 km/h 70 % 0.00 in /  0 mm
10:45 82.4 °F /  28 °C 71.6 °F /  22 °C 29.89 in /  1012.1 hPa WSW 3.7 mph /  6 km/h 8.1 mph /  13 km/h 70 % 0.00 in /  0 mm
10:50 82.6 °F /  28.1 °C 73.5 °F /  23.1 °C 29.89 in /  1012.1 hPa WNW 4.2 mph /  6.8 km/h 6.9 mph /  11.1 km/h 74 % 0.00 in /  0 mm
10:55 83.0 °F /  28.3 °C 73.4 °F /  23 °C 29.89 in /  1012.1 hPa NW 0.8 mph /  1.3 km/h 3.5 mph /  5.6 km/h 73 % 0.00 in /  0 mm
11:00 83.6 °F /  28.7 °C 72.8 °F /  22.7 °C 29.89 in /  1012.1 hPa WSW 3.1 mph /  5 km/h 4.6 mph /  7.4 km/h 70 % 0.00 in /  0 mm
11:05 84.2 °F /  29 °C 72.9 °F /  22.7 °C 29.89 in /  1012.1 hPa WSW 2.1 mph /  3.4 km/h 4.6 mph /  7.4 km/h 69 % 0.00 in /  0 mm
11:10 84.6 °F /  29.2 °C 72.0 °F /  22.2 °C 29.89 in /  1012.1 hPa WSW 3.6 mph /  5.8 km/h 4.6 mph /  7.4 km/h 66 % 0.00 in /  0 mm
11:15 85.0 °F /  29.4 °C 73.7 °F /  23.2 °C 29.89 in /  1012.1 hPa WSW 4.5 mph /  7.2 km/h 6.9 mph /  11.1 km/h 69 % 0.00 in /  0 mm
11:20 85.5 °F /  29.7 °C 74.2 °F /  23.4 °C 29.89 in /  1012.1 hPa WNW 2.8 mph /  4.5 km/h 5.8 mph /  9.3 km/h 69 % 0.00 in /  0 mm
11:25 85.8 °F /  29.9 °C 72.2 °F /  22.3 °C 29.89 in /  1012.1 hPa West 2.6 mph /  4.2 km/h 4.6 mph /  7.4 km/h 64 % 0.00 in /  0 mm
11:30 86.0 °F /  30 °C 72.4 °F /  22.4 °C 29.89 in /  1012.1 hPa NW 4.0 mph /  6.4 km/h 6.9 mph /  11.1 km/h 64 % 0.00 in /  0 mm
11:35 86.3 °F /  30.2 °C 72.7 °F /  22.6 °C 29.89 in /  1012.1 hPa SW 3.1 mph /  5 km/h 5.8 mph /  9.3 km/h 64 % 0.00 in /  0 mm
11:40 86.5 °F /  30.3 °C 72.4 °F /  22.4 °C 29.89 in /  1012.1 hPa SW 4.7 mph /  7.6 km/h 8.1 mph /  13 km/h 63 % 0.00 in /  0 mm
11:45 86.5 °F /  30.3 °C 71.5 °F /  21.9 °C 29.89 in /  1012.1 hPa WSW 8.4 mph /  13.5 km/h 11.5 mph /  18.5 km/h 61 % 0.00 in /  0 mm
11:50 86.3 °F /  30.2 °C 70.8 °F /  21.6 °C 29.89 in /  1012.1 hPa West 3.4 mph /  5.5 km/h 8.1 mph /  13 km/h 60 % 0.00 in /  0 mm
11:55 86.4 °F /  30.2 °C 71.8 °F /  22.1 °C 29.89 in /  1012.1 hPa West 2.3 mph /  3.7 km/h 4.6 mph /  7.4 km/h 62 % 0.00 in /  0 mm
12:00 86.5 °F /  30.3 °C 71.9 °F /  22.2 °C 29.89 in /  1012.1 hPa WSW 4.5 mph /  7.2 km/h 7.0 mph /  11.3 km/h 62 % 0.00 in /  0 mm
12:05 86.7 °F /  30.4 °C 72.6 °F /  22.6 °C 29.89 in /  1012.1 hPa West 5.2 mph /  8.4 km/h 9.2 mph /  14.8 km/h 63 % 0.00 in /  0 mm
12:10 87.1 °F /  30.6 °C 72.5 °F /  22.5 °C 29.89 in /  1012.1 hPa West 3.1 mph /  5 km/h 10.4 mph /  16.7 km/h 62 % 0.00 in /  0 mm
12:15 87.5 °F /  30.8 °C 73.3 °F /  22.9 °C 29.88 in /  1011.7 hPa NNW 4.9 mph /  7.9 km/h 11.5 mph /  18.5 km/h 63 % 0.00 in /  0 mm
12:20 87.9 °F /  31.1 °C 73.3 °F /  22.9 °C 29.88 in /  1011.7 hPa SSW 3.2 mph /  5.1 km/h 6.0 mph /  9.7 km/h 62 % 0.00 in /  0 mm
12:25 88.4 °F /  31.3 °C 73.2 °F /  22.9 °C 29.88 in /  1011.7 hPa West 3.8 mph /  6.1 km/h 5.8 mph /  9.3 km/h 61 % 0.00 in /  0 mm
12:31 88.7 °F /  31.5 °C 73.5 °F /  23.1 °C 29.88 in /  1011.7 hPa WSW 5.0 mph /  8 km/h 10.0 mph /  16.1 km/h 61 % 0.00 in /  0 mm
12:36 88.9 °F /  31.6 °C 72.7 °F /  22.6 °C 29.89 in /  1012.1 hPa West 3.1 mph /  5 km/h 5.8 mph /  9.3 km/h 59 % 0.00 in /  0 mm
12:41 89.0 °F /  31.7 °C 72.8 °F /  22.7 °C 29.88 in /  1011.7 hPa SW 3.2 mph /  5.1 km/h 9.0 mph /  14.5 km/h 59 % 0.00 in /  0 mm
12:46 89.1 °F /  31.7 °C 72.4 °F /  22.4 °C 29.88 in /  1011.7 hPa SW 3.6 mph /  5.8 km/h 9.0 mph /  14.5 km/h 58 % 0.00 in /  0 mm
12:52 89.2 °F /  31.8 °C 72.5 °F /  22.5 °C 29.88 in /  1011.7 hPa West 3.1 mph /  5 km/h 9.2 mph /  14.8 km/h 58 % 0.00 in /  0 mm
12:57 89.3 °F /  31.8 °C 73.1 °F /  22.8 °C 29.89 in /  1012.1 hPa NW 4.1 mph /  6.6 km/h 8.1 mph /  13 km/h 59 % 0.00 in /  0 mm
13:02 89.4 °F /  31.9 °C 73.2 °F /  22.9 °C 29.88 in /  1011.7 hPa NW 2.7 mph /  4.3 km/h 9.2 mph /  14.8 km/h 59 % 0.00 in /  0 mm
13:07 89.1 °F /  31.7 °C 71.9 °F /  22.2 °C 29.88 in /  1011.7 hPa WSW 4.4 mph /  7.1 km/h 9.2 mph /  14.8 km/h 57 % 0.00 in /  0 mm
13:12 88.8 °F /  31.6 °C 72.6 °F /  22.6 °C 29.88 in /  1011.7 hPa West 4.0 mph /  6.4 km/h 5.8 mph /  9.3 km/h 59 % 0.00 in /  0 mm
13:17 88.5 °F /  31.4 °C 73.3 °F /  22.9 °C 29.88 in /  1011.7 hPa NW 2.1 mph /  3.4 km/h 6.0 mph /  9.7 km/h 61 % 0.00 in /  0 mm
13:22 88.5 °F /  31.4 °C 73.3 °F /  22.9 °C 29.88 in /  1011.7 hPa NW 3.2 mph /  5.1 km/h 8.1 mph /  13 km/h 61 % 0.00 in /  0 mm
13:27 88.5 °F /  31.4 °C 73.3 °F /  22.9 °C 29.88 in /  1011.7 hPa WNW 3.9 mph /  6.3 km/h 5.8 mph /  9.3 km/h 61 % 0.00 in /  0 mm
13:32 88.5 °F /  31.4 °C 73.3 °F /  22.9 °C 29.89 in /  1012.1 hPa SW 2.5 mph /  4 km/h 8.1 mph /  13 km/h 61 % 0.00 in /  0 mm
13:37 88.3 °F /  31.3 °C 73.1 °F /  22.8 °C 29.88 in /  1011.7 hPa WSW 2.2 mph /  3.5 km/h 5.8 mph /  9.3 km/h 61 % 0.00 in /  0 mm
13:42 88.1 °F /  31.2 °C 72.5 °F /  22.5 °C 29.88 in /  1011.7 hPa WNW 4.2 mph /  6.8 km/h 10.4 mph /  16.7 km/h 60 % 0.00 in /  0 mm
13:47 88.0 °F /  31.1 °C 73.3 °F /  22.9 °C 29.88 in /  1011.7 hPa WSW 2.8 mph /  4.5 km/h 5.8 mph /  9.3 km/h 62 % 0.00 in /  0 mm
13:52 87.8 °F /  31 °C 73.2 °F /  22.9 °C 29.88 in /  1011.7 hPa NNW 6.3 mph /  10.1 km/h 6.3 mph /  10.1 km/h 62 % 0.00 in /  0 mm
13:57 87.6 °F /  30.9 °C 73.0 °F /  22.8 °C 29.88 in /  1011.7 hPa SW 0.9 mph /  1.4 km/h 3.5 mph /  5.6 km/h 62 % 0.00 in /  0 mm
14:02 87.7 °F /  30.9 °C 74.0 °F /  23.3 °C 29.88 in /  1011.7 hPa West 0.4 mph /  0.6 km/h 2.3 mph /  3.7 km/h 64 % 0.00 in /  0 mm
14:07 87.7 °F /  30.9 °C 73.1 °F /  22.8 °C 29.88 in /  1011.7 hPa WSW 2.4 mph /  3.9 km/h 4.0 mph /  6.4 km/h 62 % 0.00 in /  0 mm
14:12 87.8 °F /  31 °C 73.2 °F /  22.9 °C 29.88 in /  1011.7 hPa West 0.3 mph /  0.5 km/h 3.5 mph /  5.6 km/h 62 % 0.00 in /  0 mm
14:17 87.8 °F /  31 °C 73.6 °F /  23.1 °C 29.88 in /  1011.7 hPa NW 2.9 mph /  4.7 km/h 4.6 mph /  7.4 km/h 63 % 0.00 in /  0 mm
14:22 87.9 °F /  31.1 °C 73.7 °F /  23.2 °C 29.89 in /  1012.1 hPa NW 3.9 mph /  6.3 km/h 10.4 mph /  16.7 km/h 63 % 0.00 in /  0 mm
14:27 87.9 °F /  31.1 °C 73.7 °F /  23.2 °C 29.88 in /  1011.7 hPa West 2.2 mph /  3.5 km/h 4.6 mph /  7.4 km/h 63 % 0.00 in /  0 mm
14:32 87.8 °F /  31 °C 73.6 °F /  23.1 °C 29.88 in /  1011.7 hPa WNW 2.0 mph /  3.2 km/h 3.5 mph /  5.6 km/h 63 % 0.00 in /  0 mm
14:37 87.8 °F /  31 °C 75.0 °F /  23.9 °C 29.88 in /  1011.7 hPa WNW 1.0 mph /  1.6 km/h 3.5 mph /  5.6 km/h 66 % 0.00 in /  0 mm
14:42 87.7 °F /  30.9 °C 73.5 °F /  23.1 °C 29.88 in /  1011.7 hPa NW 2.6 mph /  4.2 km/h 5.0 mph /  8 km/h 63 % 0.00 in /  0 mm
14:47 87.5 °F /  30.8 °C 73.8 °F /  23.2 °C 29.88 in /  1011.7 hPa West 2.3 mph /  3.7 km/h 4.0 mph /  6.4 km/h 64 % 0.00 in /  0 mm
14:53 87.3 °F /  30.7 °C 73.6 °F /  23.1 °C 29.89 in /  1012.1 hPa NW 2.1 mph /  3.4 km/h 5.0 mph /  8 km/h 64 % 0.00 in /  0 mm
14:58 87.1 °F /  30.6 °C 73.4 °F /  23 °C 29.88 in /  1011.7 hPa WNW 2.9 mph /  4.7 km/h 4.6 mph /  7.4 km/h 64 % 0.00 in /  0 mm
15:03 86.9 °F /  30.5 °C 72.8 °F /  22.7 °C 29.88 in /  1011.7 hPa NNE 2.8 mph /  4.5 km/h 4.6 mph /  7.4 km/h 63 % 0.00 in /  0 mm
15:08 86.7 °F /  30.4 °C 73.5 °F /  23.1 °C 29.89 in /  1012.1 hPa NW 3.2 mph /  5.1 km/h 4.6 mph /  7.4 km/h 65 % 0.00 in /  0 mm
15:13 86.6 °F /  30.3 °C 73.0 °F /  22.8 °C 29.89 in /  1012.1 hPa SW 1.0 mph /  1.6 km/h 5.8 mph /  9.3 km/h 64 % 0.00 in /  0 mm
15:18 86.5 °F /  30.3 °C 74.2 °F /  23.4 °C 29.88 in /  1011.7 hPa Calm   4.6 mph /  7.4 km/h 67 % 0.00 in /  0 mm
15:23 86.4 °F /  30.2 °C 74.1 °F /  23.4 °C 29.89 in /  1012.1 hPa NW 1.5 mph /  2.4 km/h 3.5 mph /  5.6 km/h 67 % 0.00 in /  0 mm
15:28 86.3 °F /  30.2 °C 74.0 °F /  23.3 °C 29.89 in /  1012.1 hPa NW 0.5 mph /  0.8 km/h 1.2 mph /  1.9 km/h 67 % 0.00 in /  0 mm
15:33 86.2 °F /  30.1 °C 74.4 °F /  23.6 °C 29.89 in /  1012.1 hPa WNW 3.0 mph /  4.8 km/h 6.9 mph /  11.1 km/h 68 % 0.00 in /  0 mm
15:38 86.1 °F /  30.1 °C 73.0 °F /  22.8 °C 29.89 in /  1012.1 hPa West 3.3 mph /  5.3 km/h 5.0 mph /  8 km/h 65 % 0.00 in /  0 mm
15:43 86.0 °F /  30 °C 73.3 °F /  22.9 °C 29.88 in /  1011.7 hPa WNW 0.8 mph /  1.3 km/h 3.5 mph /  5.6 km/h 66 % 0.00 in /  0 mm
15:48 85.9 °F /  29.9 °C 74.1 °F /  23.4 °C 29.88 in /  1011.7 hPa WNW 0.9 mph /  1.4 km/h 2.0 mph /  3.2 km/h 68 % 0.00 in /  0 mm
15:53 85.9 °F /  29.9 °C 74.1 °F /  23.4 °C 29.88 in /  1011.7 hPa WNW 0.5 mph /  0.8 km/h 2.0 mph /  3.2 km/h 68 % 0.00 in /  0 mm
15:58 85.7 °F /  29.8 °C 74.4 °F /  23.6 °C 29.89 in /  1012.1 hPa WNW 2.3 mph /  3.7 km/h 3.0 mph /  4.8 km/h 69 % 0.00 in /  0 mm
16:03 85.5 °F /  29.7 °C 73.3 °F /  22.9 °C 29.88 in /  1011.7 hPa West 1.9 mph /  3.1 km/h 3.5 mph /  5.6 km/h 67 % 0.00 in /  0 mm
16:08 85.5 °F /  29.7 °C 73.7 °F /  23.2 °C 29.88 in /  1011.7 hPa NNE 0.7 mph /  1.1 km/h 2.3 mph /  3.7 km/h 68 % 0.00 in /  0 mm
16:13 85.6 °F /  29.8 °C 73.8 °F /  23.2 °C 29.88 in /  1011.7 hPa West 0.4 mph /  0.6 km/h 6.9 mph /  11.1 km/h 68 % 0.00 in /  0 mm
16:18 85.7 °F /  29.8 °C 73.0 °F /  22.8 °C 29.88 in /  1011.7 hPa WSW 2.8 mph /  4.5 km/h 5.8 mph /  9.3 km/h 66 % 0.00 in /  0 mm
16:23 85.7 °F /  29.8 °C 73.9 °F /  23.3 °C 29.88 in /  1011.7 hPa WNW 0.5 mph /  0.8 km/h 3.5 mph /  5.6 km/h 68 % 0.00 in /  0 mm
16:28 85.8 °F /  29.9 °C 74.0 °F /  23.3 °C 29.88 in /  1011.7 hPa WNW 0.8 mph /  1.3 km/h 2.3 mph /  3.7 km/h 68 % 0.00 in /  0 mm
16:33 85.8 °F /  29.9 °C 73.6 °F /  23.1 °C 29.88 in /  1011.7 hPa WSW 0.2 mph /  0.3 km/h 1.0 mph /  1.6 km/h 67 % 0.00 in /  0 mm
16:38 85.9 °F /  29.9 °C 73.2 °F /  22.9 °C 29.88 in /  1011.7 hPa WSW 2.3 mph /  3.7 km/h 3.5 mph /  5.6 km/h 66 % 0.00 in /  0 mm
16:43 86.3 °F /  30.2 °C 74.0 °F /  23.3 °C 29.88 in /  1011.7 hPa SW 2.4 mph /  3.9 km/h 4.6 mph /  7.4 km/h 67 % 0.00 in /  0 mm
16:48 86.5 °F /  30.3 °C 73.8 °F /  23.2 °C 29.88 in /  1011.7 hPa SW 1.7 mph /  2.7 km/h 4.6 mph /  7.4 km/h 66 % 0.00 in /  0 mm
16:54 86.8 °F /  30.4 °C 74.1 °F /  23.4 °C 29.88 in /  1011.7 hPa SW 2.9 mph /  4.7 km/h 4.6 mph /  7.4 km/h 66 % 0.00 in /  0 mm
16:59 87.0 °F /  30.6 °C 73.3 °F /  22.9 °C 29.88 in /  1011.7 hPa SW 3.4 mph /  5.5 km/h 3.5 mph /  5.6 km/h 64 % 0.00 in /  0 mm
17:04 87.0 °F /  30.6 °C 72.9 °F /  22.7 °C 29.88 in /  1011.7 hPa WSW 2.6 mph /  4.2 km/h 6.9 mph /  11.1 km/h 63 % 0.00 in /  0 mm
17:09 87.1 °F /  30.6 °C 73.4 °F /  23 °C 29.88 in /  1011.7 hPa West 1.9 mph /  3.1 km/h 3.5 mph /  5.6 km/h 64 % 0.00 in /  0 mm
17:14 87.3 °F /  30.7 °C 73.6 °F /  23.1 °C 29.88 in /  1011.7 hPa SW 0.8 mph /  1.3 km/h 3.5 mph /  5.6 km/h 64 % 0.00 in /  0 mm
17:19 87.4 °F /  30.8 °C 73.3 °F /  22.9 °C 29.88 in /  1011.7 hPa SW 2.2 mph /  3.5 km/h 4.0 mph /  6.4 km/h 63 % 0.00 in /  0 mm
17:24 87.3 °F /  30.7 °C 73.2 °F /  22.9 °C 29.88 in /  1011.7 hPa Calm   1.2 mph /  1.9 km/h 63 % 0.00 in /  0 mm
17:29 87.3 °F /  30.7 °C 73.2 °F /  22.9 °C 29.87 in /  1011.4 hPa WSW 1.3 mph /  2.1 km/h 3.5 mph /  5.6 km/h 63 % 0.00 in /  0 mm
17:34 87.3 °F /  30.7 °C 73.2 °F /  22.9 °C 29.87 in /  1011.4 hPa WSW 0.3 mph /  0.5 km/h 2.3 mph /  3.7 km/h 63 % 0.00 in /  0 mm
17:39 87.0 °F /  30.6 °C 73.3 °F /  22.9 °C 29.87 in /  1011.4 hPa NW 0.8 mph /  1.3 km/h 3.5 mph /  5.6 km/h 64 % 0.00 in /  0 mm
17:44 87.0 °F /  30.6 °C 73.3 °F /  22.9 °C 29.88 in /  1011.7 hPa SW 1.5 mph /  2.4 km/h 4.0 mph /  6.4 km/h 64 % 0.00 in /  0 mm
17:49 86.9 °F /  30.5 °C 73.7 °F /  23.2 °C 29.87 in /  1011.4 hPa SW 0.8 mph /  1.3 km/h 2.3 mph /  3.7 km/h 65 % 0.00 in /  0 mm
17:54 86.9 °F /  30.5 °C 72.8 °F /  22.7 °C 29.87 in /  1011.4 hPa WNW 0.4 mph /  0.6 km/h 1.2 mph /  1.9 km/h 63 % 0.00 in /  0 mm
17:59 86.8 °F /  30.4 °C 72.7 °F /  22.6 °C 29.87 in /  1011.4 hPa WNW 1.9 mph /  3.1 km/h 3.5 mph /  5.6 km/h 63 % 0.00 in /  0 mm
18:04 86.8 °F /  30.4 °C 73.2 °F /  22.9 °C 29.87 in /  1011.4 hPa WNW 0.1 mph /  0.2 km/h 2.3 mph /  3.7 km/h 64 % 0.00 in /  0 mm
18:09 86.6 °F /  30.3 °C 72.5 °F /  22.5 °C 29.87 in /  1011.4 hPa WNW 1.2 mph /  1.9 km/h 2.3 mph /  3.7 km/h 63 % 0.00 in /  0 mm
18:14 86.5 °F /  30.3 °C 73.8 °F /  23.2 °C 29.87 in /  1011.4 hPa Calm   1.2 mph /  1.9 km/h 66 % 0.00 in /  0 mm
18:19 86.2 °F /  30.1 °C 73.0 °F /  22.8 °C 29.88 in /  1011.7 hPa WNW 0.6 mph /  1 km/h 2.3 mph /  3.7 km/h 65 % 0.00 in /  0 mm
18:24 86.0 °F /  30 °C 74.6 °F /  23.7 °C 29.90 in /  1012.4 hPa SSW 11.4 mph /  18.3 km/h 23.0 mph /  37 km/h 69 % 0.02 in /  0.51 mm
18:26 85.4 °F /  29.7 °C 74.9 °F /  23.8 °C 29.91 in /  1012.8 hPa SW 6.4 mph /  10.3 km/h 12.7 mph /  20.4 km/h 71 % 0.06 in /  1.52 mm
18:31 83.6 °F /  28.7 °C 74.4 °F /  23.6 °C 29.89 in /  1012.1 hPa NW 1.4 mph /  2.3 km/h 11.5 mph /  18.5 km/h 74 % 0.22 in /  5.59 mm
18:34 82.9 °F /  28.3 °C 74.2 °F /  23.4 °C 29.89 in /  1012.1 hPa NW 0.6 mph /  1 km/h 2.3 mph /  3.7 km/h 75 % 0.32 in /  8.13 mm
18:39 82.0 °F /  27.8 °C 74.1 °F /  23.4 °C 29.88 in /  1011.7 hPa Calm     77 % 0.32 in /  8.13 mm
18:44 81.2 °F /  27.3 °C 74.1 °F /  23.4 °C 29.89 in /  1012.1 hPa North 0.2 mph /  0.3 km/h 1.0 mph /  1.6 km/h 79 % 0.32 in /  8.13 mm
18:49 80.5 °F /  26.9 °C 74.1 °F /  23.4 °C 29.89 in /  1012.1 hPa Calm     81 % 0.32 in /  8.13 mm
18:54 79.8 °F /  26.6 °C 73.8 °F /  23.2 °C 29.90 in /  1012.4 hPa WSW 0.7 mph /  1.1 km/h 1.2 mph /  1.9 km/h 82 % 0.32 in /  8.13 mm
18:55 79.7 °F /  26.5 °C 74.1 °F /  23.4 °C 29.89 in /  1012.1 hPa WSW 0.2 mph /  0.3 km/h 2.3 mph /  3.7 km/h 83 % 0.33 in /  8.38 mm
19:00 79.1 °F /  26.2 °C 73.8 °F /  23.2 °C 29.89 in /  1012.1 hPa Calm   1.2 mph /  1.9 km/h 84 % 0.33 in /  8.38 mm
19:05 78.7 °F /  25.9 °C 73.8 °F /  23.2 °C 29.90 in /  1012.4 hPa Calm     85 % 0.33 in /  8.38 mm
19:10 78.4 °F /  25.8 °C 73.9 °F /  23.3 °C 29.89 in /  1012.1 hPa Calm     86 % 0.33 in /  8.38 mm
19:15 78.1 °F /  25.6 °C 73.9 °F /  23.3 °C 29.90 in /  1012.4 hPa Calm     87 % 0.33 in /  8.38 mm
19:20 77.8 °F /  25.4 °C 74.0 °F /  23.3 °C 29.89 in /  1012.1 hPa Calm     88 % 0.33 in /  8.38 mm
19:25 77.6 °F /  25.3 °C 73.8 °F /  23.2 °C 29.89 in /  1012.1 hPa Calm     88 % 0.29 in /  7.37 mm
19:30 77.4 °F /  25.2 °C 73.9 °F /  23.3 °C 29.89 in /  1012.1 hPa Calm   1.0 mph /  1.6 km/h 89 % 0.15 in /  3.81 mm
19:35 77.3 °F /  25.2 °C 73.8 °F /  23.2 °C 29.89 in /  1012.1 hPa Calm     89 % 0.01 in /  0.25 mm
19:40 77.1 °F /  25.1 °C 73.6 °F /  23.1 °C 29.90 in /  1012.4 hPa Calm     89 % 0.01 in /  0.25 mm
19:45 77.1 °F /  25.1 °C 73.9 °F /  23.3 °C 29.90 in /  1012.4 hPa Calm     90 % 0.02 in /  0.51 mm
19:50 77.1 °F /  25.1 °C 74.3 °F /  23.5 °C 29.89 in /  1012.1 hPa SE 0.4 mph /  0.6 km/h 2.3 mph /  3.7 km/h 91 % 0.03 in /  0.76 mm
19:55 77.0 °F /  25 °C 74.2 °F /  23.4 °C 29.89 in /  1012.1 hPa SE 0.3 mph /  0.5 km/h 1.2 mph /  1.9 km/h 91 % 0.03 in /  0.76 mm
20:00 76.9 °F /  24.9 °C 74.1 °F /  23.4 °C 29.90 in /  1012.4 hPa SE 0.7 mph /  1.1 km/h 1.2 mph /  1.9 km/h 91 % 0.03 in /  0.76 mm
20:05 76.9 °F /  24.9 °C 74.1 °F /  23.4 °C 29.90 in /  1012.4 hPa Calm   1.2 mph /  1.9 km/h 91 % 0.03 in /  0.76 mm
20:10 76.8 °F /  24.9 °C 74.0 °F /  23.3 °C 29.90 in /  1012.4 hPa SE 0.2 mph /  0.3 km/h 1.2 mph /  1.9 km/h 91 % 0.03 in /  0.76 mm
20:16 76.7 °F /  24.8 °C 74.2 °F /  23.4 °C 29.89 in /  1012.1 hPa SW 1.3 mph /  2.1 km/h 3.0 mph /  4.8 km/h 92 % 0.03 in /  0.76 mm
20:21 76.7 °F /  24.8 °C 74.2 °F /  23.4 °C 29.89 in /  1012.1 hPa Calm     92 % 0.04 in /  1.02 mm
20:26 76.6 °F /  24.8 °C 74.1 °F /  23.4 °C 29.89 in /  1012.1 hPa Calm   1.0 mph /  1.6 km/h 92 % 0.04 in /  1.02 mm
20:31 76.5 °F /  24.7 °C 74.0 °F /  23.3 °C 29.89 in /  1012.1 hPa Calm     92 % 0.00 in /  0 mm
20:36 76.4 °F /  24.7 °C 73.9 °F /  23.3 °C 29.89 in /  1012.1 hPa Calm   1.0 mph /  1.6 km/h 92 % 0.00 in /  0 mm
20:41 76.3 °F /  24.6 °C 73.8 °F /  23.2 °C 29.89 in /  1012.1 hPa Calm     92 % 0.00 in /  0 mm
20:46 76.2 °F /  24.6 °C 73.7 °F /  23.2 °C 29.89 in /  1012.1 hPa Calm     92 % 0.03 in /  0.76 mm
20:51 76.1 °F /  24.5 °C 73.6 °F /  23.1 °C 29.89 in /  1012.1 hPa Calm     92 % 0.00 in /  0 mm
20:56 76.0 °F /  24.4 °C 73.5 °F /  23.1 °C 29.89 in /  1012.1 hPa Calm   1.0 mph /  1.6 km/h 92 % 0.00 in /  0 mm
21:01 75.9 °F /  24.4 °C 73.4 °F /  23 °C 29.89 in /  1012.1 hPa Calm     92 % 0.01 in /  0.25 mm
21:06 75.8 °F /  24.3 °C 73.3 °F /  22.9 °C 29.89 in /  1012.1 hPa Calm     92 % 0.01 in /  0.25 mm
21:11 75.7 °F /  24.3 °C 73.2 °F /  22.9 °C 29.89 in /  1012.1 hPa Calm     92 % 0.01 in /  0.25 mm
21:16 75.7 °F /  24.3 °C 73.2 °F /  22.9 °C 29.89 in /  1012.1 hPa Calm     92 % 0.01 in /  0.25 mm
21:21 75.6 °F /  24.2 °C 73.1 °F /  22.8 °C 29.89 in /  1012.1 hPa Calm     92 % 0.00 in /  0 mm
21:26 75.5 °F /  24.2 °C 73.0 °F /  22.8 °C 29.89 in /  1012.1 hPa Calm     92 % 0.00 in /  0 mm
21:31 75.5 °F /  24.2 °C 73.0 °F /  22.8 °C 29.89 in /  1012.1 hPa Calm     92 % 0.00 in /  0 mm
21:36 75.4 °F /  24.1 °C 72.9 °F /  22.7 °C 29.89 in /  1012.1 hPa Calm     92 % 0.00 in /  0 mm
21:41 75.3 °F /  24.1 °C 72.8 °F /  22.7 °C 29.90 in /  1012.4 hPa Calm     92 % 0.00 in /  0 mm
21:46 75.3 °F /  24.1 °C 72.8 °F /  22.7 °C 29.90 in /  1012.4 hPa Calm     92 % 0.00 in /  0 mm
21:51 75.2 °F /  24 °C 72.7 °F /  22.6 °C 29.90 in /  1012.4 hPa Calm     92 % 0.00 in /  0 mm
21:56 75.1 °F /  23.9 °C 72.6 °F /  22.6 °C 29.91 in /  1012.8 hPa Calm     92 % 0.00 in /  0 mm
22:01 75.0 °F /  23.9 °C 72.8 °F /  22.7 °C 29.90 in /  1012.4 hPa Calm     93 % 0.00 in /  0 mm
22:06 74.9 °F /  23.8 °C 72.7 °F /  22.6 °C 29.90 in /  1012.4 hPa Calm     93 % 0.00 in /  0 mm
22:11 74.9 °F /  23.8 °C 72.7 °F /  22.6 °C 29.91 in /  1012.8 hPa Calm     93 % 0.00 in /  0 mm
22:16 74.8 °F /  23.8 °C 72.6 °F /  22.6 °C 29.91 in /  1012.8 hPa Calm     93 % 0.00 in /  0 mm
22:22 74.7 °F /  23.7 °C 72.5 °F /  22.5 °C 29.90 in /  1012.4 hPa Calm     93 % 0.00 in /  0 mm
22:27 74.6 °F /  23.7 °C 72.4 °F /  22.4 °C 29.91 in /  1012.8 hPa Calm     93 % 0.00 in /  0 mm
22:32 74.6 °F /  23.7 °C 72.4 °F /  22.4 °C 29.91 in /  1012.8 hPa Calm     93 % 0.00 in /  0 mm
22:37 74.5 °F /  23.6 °C 72.3 °F /  22.4 °C 29.91 in /  1012.8 hPa Calm     93 % 0.00 in /  0 mm
22:42 74.4 °F /  23.6 °C 72.2 °F /  22.3 °C 29.90 in /  1012.4 hPa Calm     93 % 0.00 in /  0 mm
22:47 74.3 °F /  23.5 °C 72.1 °F /  22.3 °C 29.90 in /  1012.4 hPa Calm     93 % 0.00 in /  0 mm
22:52 74.3 °F /  23.5 °C 72.1 °F /  22.3 °C 29.90 in /  1012.4 hPa Calm     93 % 0.00 in /  0 mm
22:57 74.2 °F /  23.4 °C 72.0 °F /  22.2 °C 29.90 in /  1012.4 hPa Calm     93 % 0.00 in /  0 mm
23:02 74.1 °F /  23.4 °C 71.9 °F /  22.2 °C 29.90 in /  1012.4 hPa Calm     93 % 0.00 in /  0 mm
23:07 74.1 °F /  23.4 °C 71.9 °F /  22.2 °C 29.90 in /  1012.4 hPa Calm     93 % 0.00 in /  0 mm
23:12 74.0 °F /  23.3 °C 71.8 °F /  22.1 °C 29.90 in /  1012.4 hPa Calm     93 % 0.00 in /  0 mm
23:17 74.0 °F /  23.3 °C 71.8 °F /  22.1 °C 29.90 in /  1012.4 hPa Calm     93 % 0.00 in /  0 mm
23:22 73.9 °F /  23.3 °C 71.7 °F /  22.1 °C 29.90 in /  1012.4 hPa Calm     93 % 0.00 in /  0 mm
23:27 73.9 °F /  23.3 °C 71.7 °F /  22.1 °C 29.90 in /  1012.4 hPa Calm     93 % 0.00 in /  0 mm
23:32 73.8 °F /  23.2 °C 71.6 °F /  22 °C 29.90 in /  1012.4 hPa Calm     93 % 0.00 in /  0 mm
23:37 73.8 °F /  23.2 °C 72.0 °F /  22.2 °C 29.90 in /  1012.4 hPa Calm     94 % 0.00 in /  0 mm
23:42 73.8 °F /  23.2 °C 72.0 °F /  22.2 °C 29.90 in /  1012.4 hPa Calm     94 % 0.00 in /  0 mm
23:44 73.8 °F /  23.2 °C 72.0 °F /  22.2 °C 29.90 in /  1012.4 hPa Calm     94 % 0.00 in /  0 mm
23:49 73.8 °F /  23.2 °C 72.0 °F /  22.2 °C 29.90 in /  1012.4 hPa Calm     94 % 0.00 in /  0 mm
23:54 73.7 °F /  23.2 °C 71.9 °F /  22.2 °C 29.90 in /  1012.4 hPa Calm     94 % 0.00 in /  0 mm
23:59 73.7 °F /  23.2 °C 71.9 °F /  22.2 °C 29.91 in /  1012.8 hPa Calm     94 % 0.00 in /  0 mm
Crab Meadow Weather
Compliments of Weather Underground - 3 mb

Script developed by  Jim McMurry - jmcmurry@mwt.net Adapted for the template by  Wim van der Kuil - Leuven-Template.eu

Astronomy: It takes 16 million horsepower to break loose from the Earth's gravitational pull.